createdAt,value
2023-04-09T00:00:19.893Z,13.20
2023-04-09T00:01:19.888Z,13.30
2023-04-09T00:02:19.937Z,13.30
2023-04-09T00:03:19.916Z,13.40
2023-04-09T00:04:19.898Z,12.80
2023-04-09T00:05:19.858Z,13.20
2023-04-09T00:06:19.851Z,13.10
2023-04-09T00:07:19.843Z,13.40
2023-04-09T00:08:19.859Z,13.30
2023-04-09T00:09:19.832Z,13.30
2023-04-09T00:10:19.817Z,13.50
2023-04-09T00:11:19.816Z,12.70
2023-04-09T00:12:19.805Z,12.90
2023-04-09T00:13:28.309Z,13.10
2023-04-09T00:14:21.797Z,12.70
2023-04-09T00:15:29.967Z,13.60
2023-04-09T00:16:21.822Z,13.60
2023-04-09T00:17:19.862Z,13.80
2023-04-09T00:18:19.782Z,12.90
2023-04-09T00:19:20.071Z,13.30
2023-04-09T00:20:19.752Z,13.40
2023-04-09T00:21:19.746Z,13.30
2023-04-09T00:22:19.735Z,12.70
2023-04-09T00:23:19.933Z,13.00
2023-04-09T00:24:19.716Z,12.60
2023-04-09T00:25:19.730Z,13.30
2023-04-09T00:26:19.706Z,12.70
2023-04-09T00:27:19.689Z,12.90
2023-04-09T00:28:19.715Z,12.90
2023-04-09T00:29:19.679Z,13.50
2023-04-09T00:30:19.665Z,13.40
2023-04-09T00:31:20.706Z,14.20
2023-04-09T00:32:20.655Z,13.20
2023-04-09T00:33:19.677Z,13.30
2023-04-09T00:34:19.639Z,12.80
2023-04-09T00:35:19.637Z,12.40
2023-04-09T00:36:19.626Z,13.30
2023-04-09T00:37:19.615Z,13.50
2023-04-09T00:38:19.643Z,15.10
2023-04-09T00:39:19.609Z,15.50
2023-04-09T00:40:19.601Z,15.40
2023-04-09T00:41:19.585Z,14.20
2023-04-09T00:42:19.590Z,15.00
2023-04-09T00:43:19.594Z,13.10
2023-04-09T00:44:19.563Z,13.90
2023-04-09T00:45:19.560Z,13.20
2023-04-09T00:46:19.624Z,12.90
2023-04-09T00:47:19.566Z,12.50
2023-04-09T00:48:19.576Z,13.10
2023-04-09T00:49:19.534Z,12.60
2023-04-09T00:50:19.527Z,12.20
2023-04-09T00:51:19.513Z,12.90
2023-04-09T00:52:19.505Z,12.10
2023-04-09T00:53:19.527Z,12.50
2023-04-09T00:54:19.494Z,12.60
2023-04-09T00:55:19.485Z,12.70
2023-04-09T00:56:19.477Z,12.50
2023-04-09T00:57:19.472Z,12.60
2023-04-09T00:58:19.488Z,13.20
2023-04-09T00:59:19.460Z,13.00
2023-04-09T01:00:19.445Z,13.10
2023-04-09T01:01:19.496Z,13.90
2023-04-09T01:02:19.502Z,14.10
2023-04-09T01:03:19.539Z,14.80
2023-04-09T01:04:19.421Z,14.90
2023-04-09T01:05:19.409Z,15.20
2023-04-09T01:06:19.400Z,14.20
2023-04-09T01:07:19.389Z,14.90
2023-04-09T01:08:19.413Z,16.10
2023-04-09T01:09:19.372Z,14.50
2023-04-09T01:10:19.401Z,14.50
2023-04-09T01:11:19.355Z,15.10
2023-04-09T01:12:19.350Z,14.50
2023-04-09T01:13:19.374Z,13.90
2023-04-09T01:14:19.331Z,14.40
2023-04-09T01:15:19.335Z,13.80
2023-04-09T01:16:19.370Z,14.90
2023-04-09T01:17:19.316Z,14.70
2023-04-09T01:18:19.320Z,14.20
2023-04-09T01:19:19.286Z,14.10
2023-04-09T01:20:19.282Z,14.40
2023-04-09T01:21:19.283Z,14.30
2023-04-09T01:22:19.269Z,13.80
2023-04-09T01:23:19.283Z,13.20
2023-04-09T01:24:19.256Z,13.80
2023-04-09T01:25:19.251Z,13.40
2023-04-09T01:26:19.281Z,13.50
2023-04-09T01:27:19.227Z,12.90
2023-04-09T01:28:19.258Z,15.20
2023-04-09T01:29:19.211Z,14.60
2023-04-09T01:30:19.251Z,16.20
2023-04-09T01:31:19.210Z,15.10
2023-04-09T01:32:19.226Z,17.00
2023-04-09T01:33:19.208Z,15.80
2023-04-09T01:34:19.186Z,15.20
2023-04-09T01:35:19.179Z,15.90
2023-04-09T01:36:19.172Z,15.90
2023-04-09T01:37:19.158Z,16.60
2023-04-09T01:38:19.187Z,17.00
2023-04-09T01:39:19.145Z,16.20
2023-04-09T01:40:19.142Z,15.90
2023-04-09T01:41:19.126Z,15.50
2023-04-09T01:42:19.119Z,13.90
2023-04-09T01:43:19.130Z,14.40
2023-04-09T01:44:19.093Z,13.60
2023-04-09T01:45:19.102Z,14.20
2023-04-09T01:46:19.113Z,14.00
2023-04-09T01:47:19.072Z,13.80
2023-04-09T01:48:19.094Z,12.90
2023-04-09T01:49:19.061Z,14.10
2023-04-09T01:50:19.051Z,14.10
2023-04-09T01:51:19.044Z,13.20
2023-04-09T01:52:19.038Z,13.00
2023-04-09T01:53:19.055Z,13.50
2023-04-09T01:54:19.020Z,12.70
2023-04-09T01:55:19.022Z,12.10
2023-04-09T01:56:19.008Z,12.50
2023-04-09T01:57:18.997Z,13.00
2023-04-09T01:58:19.020Z,13.50
2023-04-09T01:59:18.991Z,13.60
2023-04-09T02:00:18.994Z,14.70
2023-04-09T02:01:19.034Z,14.90
2023-04-09T02:02:19.134Z,15.50
2023-04-09T02:03:19.013Z,14.40
2023-04-09T02:04:18.952Z,14.20
2023-04-09T02:05:18.952Z,14.90
2023-04-09T02:06:18.932Z,14.00
2023-04-09T02:07:18.928Z,14.00
2023-04-09T02:08:18.939Z,14.40
2023-04-09T02:09:18.905Z,14.10
2023-04-09T02:10:18.902Z,13.80
2023-04-09T02:11:18.893Z,13.50
2023-04-09T02:12:18.902Z,14.00
2023-04-09T02:13:18.879Z,12.20
2023-04-09T02:14:18.909Z,13.30
2023-04-09T02:15:18.864Z,12.90
2023-04-09T02:16:19.025Z,13.10
2023-04-09T02:17:18.849Z,13.50
2023-04-09T02:18:18.837Z,12.50
2023-04-09T02:19:18.902Z,13.30
2023-04-09T02:20:18.840Z,13.80
2023-04-09T02:21:18.816Z,12.60
2023-04-09T02:22:18.831Z,13.50
2023-04-09T02:23:18.801Z,13.20
2023-04-09T02:24:18.890Z,12.90
2023-04-09T02:25:18.780Z,13.20
2023-04-09T02:26:18.777Z,13.40
2023-04-09T02:27:18.781Z,12.60
2023-04-09T02:28:18.761Z,12.50
2023-04-09T02:29:18.783Z,13.70
2023-04-09T02:30:18.746Z,13.20
2023-04-09T02:31:18.836Z,13.60
2023-04-09T02:32:18.729Z,12.60
2023-04-09T02:33:18.726Z,12.20
2023-04-09T02:34:18.738Z,13.70
2023-04-09T02:35:18.711Z,12.80
2023-04-09T02:36:18.702Z,13.20
2023-04-09T02:37:18.693Z,13.20
2023-04-09T02:38:18.691Z,13.70
2023-04-09T02:39:18.703Z,13.10
2023-04-09T02:40:18.671Z,13.10
2023-04-09T02:41:18.663Z,13.30
2023-04-09T02:42:18.696Z,13.00
2023-04-09T02:43:18.655Z,13.40
2023-04-09T02:44:18.667Z,14.20
2023-04-09T02:45:18.637Z,13.60
2023-04-09T02:46:18.688Z,13.40
2023-04-09T02:47:18.632Z,13.30
2023-04-09T02:48:18.612Z,13.40
2023-04-09T02:49:18.632Z,13.30
2023-04-09T02:50:18.602Z,13.50
2023-04-09T02:51:18.589Z,12.90
2023-04-09T02:52:18.598Z,13.50
2023-04-09T02:53:18.580Z,14.20
2023-04-09T02:54:18.586Z,13.60
2023-04-09T02:55:18.560Z,14.30
2023-04-09T02:56:18.561Z,14.00
2023-04-09T02:57:18.544Z,14.00
2023-04-09T02:58:18.544Z,14.80
2023-04-09T02:59:18.553Z,15.10
2023-04-09T03:00:18.524Z,15.50
2023-04-09T03:01:18.572Z,15.70
2023-04-09T03:02:18.608Z,15.50
2023-04-09T03:03:18.571Z,15.40
2023-04-09T03:04:18.540Z,16.10
2023-04-09T03:05:18.484Z,17.90
2023-04-09T03:06:18.700Z,16.50
2023-04-09T03:07:18.455Z,17.80
2023-04-09T03:08:18.449Z,17.80
2023-04-09T03:09:18.478Z,18.30
2023-04-09T03:10:18.433Z,17.60
2023-04-09T03:11:18.434Z,17.20
2023-04-09T03:12:18.419Z,15.10
2023-04-09T03:13:18.414Z,15.00
2023-04-09T03:14:18.436Z,14.80
2023-04-09T03:15:18.398Z,14.70
2023-04-09T03:16:18.470Z,14.80
2023-04-09T03:17:18.387Z,15.00
2023-04-09T03:18:18.373Z,13.70
2023-04-09T03:19:18.401Z,13.60
2023-04-09T03:20:18.352Z,13.80
2023-04-09T03:21:18.354Z,14.20
2023-04-09T03:22:18.344Z,13.30
2023-04-09T03:23:18.336Z,14.60
2023-04-09T03:24:18.353Z,14.00
2023-04-09T03:25:18.326Z,14.50
2023-04-09T03:26:18.322Z,13.90
2023-04-09T03:27:18.305Z,13.80
2023-04-09T03:28:18.288Z,14.00
2023-04-09T03:29:18.284Z,13.40
2023-04-09T03:30:18.315Z,13.60
2023-04-09T03:31:18.300Z,14.20
2023-04-09T03:32:19.164Z,13.70
2023-04-09T03:33:19.256Z,14.70
2023-04-09T03:34:18.247Z,14.10
2023-04-09T03:35:18.263Z,14.40
2023-04-09T03:36:18.232Z,14.50
2023-04-09T03:37:18.230Z,14.20
2023-04-09T03:38:18.226Z,15.10
2023-04-09T03:39:18.208Z,15.10
2023-04-09T03:40:18.224Z,15.30
2023-04-09T03:41:18.195Z,14.30
2023-04-09T03:42:18.182Z,14.30
2023-04-09T03:43:18.169Z,14.70
2023-04-09T03:44:18.179Z,14.90
2023-04-09T03:45:18.181Z,14.60
2023-04-09T03:46:18.164Z,14.50
2023-04-09T03:47:18.143Z,13.00
2023-04-09T03:48:18.136Z,13.70
2023-04-09T03:49:18.125Z,14.60
2023-04-09T03:50:18.145Z,14.30
2023-04-09T03:51:18.107Z,14.90
2023-04-09T03:52:18.111Z,13.80
2023-04-09T03:53:18.098Z,14.40
2023-04-09T03:54:18.112Z,13.80
2023-04-09T03:55:18.111Z,14.70
2023-04-09T03:56:18.074Z,14.10
2023-04-09T03:57:18.066Z,14.10
2023-04-09T03:58:18.051Z,15.10
2023-04-09T03:59:18.057Z,14.10
2023-04-09T04:00:18.070Z,13.30
2023-04-09T04:01:18.045Z,14.40
2023-04-09T04:02:18.035Z,13.90
2023-04-09T04:03:18.182Z,14.00
2023-04-09T04:04:18.853Z,14.50
2023-04-09T04:05:18.026Z,13.40
2023-04-09T04:06:17.995Z,14.70
2023-04-09T04:07:17.993Z,13.80
2023-04-09T04:08:17.969Z,13.60
2023-04-09T04:09:17.960Z,13.50
2023-04-09T04:10:17.992Z,13.50
2023-04-09T04:11:17.946Z,13.60
2023-04-09T04:12:17.939Z,12.90
2023-04-09T04:13:17.968Z,13.10
2023-04-09T04:14:17.921Z,14.40
2023-04-09T04:15:17.938Z,14.10
2023-04-09T04:16:17.951Z,14.10
2023-04-09T04:17:17.955Z,13.80
2023-04-09T04:18:17.898Z,13.70
2023-04-09T04:19:17.881Z,14.80
2023-04-09T04:20:17.896Z,13.60
2023-04-09T04:21:17.877Z,14.20
2023-04-09T04:22:17.888Z,14.00
2023-04-09T04:23:17.853Z,14.20
2023-04-09T04:24:17.834Z,14.10
2023-04-09T04:25:17.850Z,14.40
2023-04-09T04:26:17.821Z,14.70
2023-04-09T04:27:17.815Z,14.40
2023-04-09T04:28:17.800Z,13.50
2023-04-09T04:29:17.795Z,14.50
2023-04-09T04:30:17.828Z,14.10
2023-04-09T04:31:17.800Z,15.30
2023-04-09T04:32:17.773Z,15.00
2023-04-09T04:33:17.770Z,15.50
2023-04-09T04:34:17.752Z,14.70
2023-04-09T04:35:17.800Z,13.90
2023-04-09T04:36:17.757Z,16.10
2023-04-09T04:37:17.730Z,15.70
2023-04-09T04:38:17.734Z,16.40
2023-04-09T04:39:17.717Z,16.80
2023-04-09T04:40:17.758Z,15.60
2023-04-09T04:41:17.709Z,15.70
2023-04-09T04:42:17.713Z,14.70
2023-04-09T04:43:17.678Z,16.60
2023-04-09T04:44:17.675Z,16.40
2023-04-09T04:45:17.697Z,18.30
2023-04-09T04:46:17.750Z,17.90
2023-04-09T04:47:17.716Z,18.00
2023-04-09T04:48:17.639Z,19.60
2023-04-09T04:49:17.637Z,17.90
2023-04-09T04:50:17.657Z,18.50
2023-04-09T04:51:17.622Z,18.90
2023-04-09T04:52:17.942Z,20.00
2023-04-09T04:53:18.601Z,19.20
2023-04-09T04:54:17.600Z,19.50
2023-04-09T04:55:17.609Z,19.70
2023-04-09T04:56:17.616Z,18.40
2023-04-09T04:57:17.569Z,18.30
2023-04-09T04:58:17.559Z,18.70
2023-04-09T04:59:17.551Z,19.40
2023-04-09T05:00:17.596Z,18.50
2023-04-09T05:01:17.561Z,17.90
2023-04-09T05:02:17.751Z,16.10
2023-04-09T05:03:17.578Z,17.00
2023-04-09T05:04:17.552Z,21.90
2023-04-09T05:05:17.536Z,23.10
2023-04-09T05:06:17.505Z,18.40
2023-04-09T05:07:17.489Z,17.50
2023-04-09T05:08:17.478Z,18.20
2023-04-09T05:09:17.490Z,22.60
2023-04-09T05:10:17.501Z,24.50
2023-04-09T05:11:17.453Z,23.70
2023-04-09T05:12:17.443Z,22.20
2023-04-09T05:13:17.448Z,24.50
2023-04-09T05:14:17.432Z,25.50
2023-04-09T05:15:17.445Z,25.80
2023-04-09T05:16:17.448Z,26.10
2023-04-09T05:17:17.462Z,25.80
2023-04-09T05:18:17.408Z,26.40
2023-04-09T05:19:17.392Z,27.70
2023-04-09T05:20:17.409Z,27.80
2023-04-09T05:21:17.375Z,26.80
2023-04-09T05:22:17.368Z,27.90
2023-04-09T05:23:17.497Z,28.10
2023-04-09T05:24:17.357Z,27.60
2023-04-09T05:25:17.371Z,27.70
2023-04-09T05:26:17.407Z,27.70
2023-04-09T05:27:17.331Z,27.10
2023-04-09T05:28:17.325Z,27.70
2023-04-09T05:29:17.326Z,27.50
2023-04-09T05:30:17.345Z,28.30
2023-04-09T05:31:17.387Z,27.90
2023-04-09T05:32:17.303Z,28.00
2023-04-09T05:33:17.278Z,27.80
2023-04-09T05:34:17.273Z,27.00
2023-04-09T05:35:17.296Z,27.80
2023-04-09T05:36:17.255Z,27.80
2023-04-09T05:37:17.249Z,27.30
2023-04-09T05:38:17.245Z,27.90
2023-04-09T05:39:17.236Z,27.60
2023-04-09T05:40:17.232Z,27.40
2023-04-09T05:41:17.250Z,27.80
2023-04-09T05:42:17.208Z,28.40
2023-04-09T05:43:17.202Z,28.50
2023-04-09T05:44:17.192Z,27.50
2023-04-09T05:45:17.192Z,27.80
2023-04-09T05:46:17.254Z,28.00
2023-04-09T05:47:17.169Z,28.10
2023-04-09T05:48:17.172Z,27.60
2023-04-09T05:49:17.154Z,26.90
2023-04-09T05:50:17.150Z,27.70
2023-04-09T05:51:17.179Z,27.50
2023-04-09T05:52:17.130Z,28.60
2023-04-09T05:53:17.133Z,28.70
2023-04-09T05:54:17.125Z,28.30
2023-04-09T05:55:17.111Z,27.80
2023-04-09T05:56:17.134Z,27.70
2023-04-09T05:57:17.100Z,27.40
2023-04-09T05:58:17.087Z,27.80
2023-04-09T05:59:17.085Z,28.30
2023-04-09T06:00:17.075Z,29.20
2023-04-09T06:01:17.087Z,27.40
2023-04-09T06:02:17.141Z,28.40
2023-04-09T06:03:17.186Z,28.50
2023-04-09T06:04:17.355Z,27.80
2023-04-09T06:05:17.032Z,28.40
2023-04-09T06:06:17.049Z,27.90
2023-04-09T06:07:17.015Z,26.90
2023-04-09T06:08:17.006Z,28.60
2023-04-09T06:09:17.010Z,28.50
2023-04-09T06:10:17.005Z,28.10
2023-04-09T06:11:17.025Z,26.80
2023-04-09T06:12:16.973Z,27.30
2023-04-09T06:13:16.972Z,26.00
2023-04-09T06:14:16.971Z,27.20
2023-04-09T06:15:16.952Z,26.60
2023-04-09T06:16:17.082Z,27.90
2023-04-09T06:17:16.941Z,27.50
2023-04-09T06:18:16.932Z,26.40
2023-04-09T06:19:16.915Z,26.20
2023-04-09T06:20:16.915Z,27.60
2023-04-09T06:21:16.932Z,27.90
2023-04-09T06:22:16.899Z,25.90
2023-04-09T06:23:16.886Z,27.30
2023-04-09T06:24:16.878Z,27.80
2023-04-09T06:25:16.874Z,26.40
2023-04-09T06:26:16.892Z,26.10
2023-04-09T06:27:16.858Z,27.00
2023-04-09T06:28:16.847Z,26.10
2023-04-09T06:29:16.842Z,25.70
2023-04-09T06:30:16.834Z,25.90
2023-04-09T06:31:16.857Z,27.80
2023-04-09T06:32:16.822Z,26.30
2023-04-09T06:33:16.859Z,25.40
2023-04-09T06:34:16.810Z,27.70
2023-04-09T06:35:16.798Z,26.60
2023-04-09T06:36:16.858Z,25.80
2023-04-09T06:37:16.784Z,25.30
2023-04-09T06:38:16.770Z,26.90
2023-04-09T06:39:16.760Z,28.40
2023-04-09T06:40:16.752Z,27.20
2023-04-09T06:41:16.773Z,27.50
2023-04-09T06:42:16.738Z,26.20
2023-04-09T06:43:16.730Z,27.70
2023-04-09T06:44:16.722Z,26.20
2023-04-09T06:45:16.737Z,26.30
2023-04-09T06:46:16.761Z,27.40
2023-04-09T06:47:16.699Z,26.30
2023-04-09T06:48:16.692Z,26.60
2023-04-09T06:49:16.682Z,26.30
2023-04-09T06:50:17.692Z,26.90
2023-04-09T06:51:16.704Z,26.00
2023-04-09T06:52:16.675Z,25.80
2023-04-09T06:53:16.707Z,25.40
2023-04-09T06:54:16.646Z,28.50
2023-04-09T06:55:16.657Z,26.80
2023-04-09T06:56:16.658Z,26.80
2023-04-09T06:57:16.620Z,26.00
2023-04-09T06:58:16.615Z,27.00
2023-04-09T06:59:16.610Z,27.50
2023-04-09T07:00:16.609Z,26.50
2023-04-09T07:01:16.654Z,28.00
2023-04-09T07:02:16.656Z,26.90
2023-04-09T07:03:16.663Z,28.30
2023-04-09T07:04:16.708Z,26.00
2023-04-09T07:05:16.583Z,27.20
2023-04-09T07:06:16.581Z,28.10
2023-04-09T07:07:16.551Z,27.10
2023-04-09T07:08:16.542Z,27.70
2023-04-09T07:09:16.536Z,26.50
2023-04-09T07:10:16.520Z,27.20
2023-04-09T07:11:16.545Z,26.90
2023-04-09T07:12:16.512Z,27.20
2023-04-09T07:13:16.507Z,28.00
2023-04-09T07:14:16.499Z,28.70
2023-04-09T07:15:16.496Z,29.50
2023-04-09T07:16:16.532Z,29.20
2023-04-09T07:17:16.473Z,27.60
2023-04-09T07:18:16.464Z,28.80
2023-04-09T07:19:16.458Z,28.40
2023-04-09T07:20:16.446Z,28.00
2023-04-09T07:21:16.463Z,28.60
2023-04-09T07:22:16.429Z,28.30
2023-04-09T07:23:16.427Z,27.50
2023-04-09T07:24:16.416Z,28.30
2023-04-09T07:25:16.408Z,29.80
2023-04-09T07:26:16.433Z,29.50
2023-04-09T07:27:16.396Z,28.60
2023-04-09T07:28:16.535Z,28.90
2023-04-09T07:29:16.378Z,29.20
2023-04-09T07:30:16.380Z,27.80
2023-04-09T07:31:16.431Z,28.20
2023-04-09T07:32:16.355Z,29.10
2023-04-09T07:33:16.348Z,28.70
2023-04-09T07:34:16.338Z,29.20
2023-04-09T07:35:16.336Z,28.80
2023-04-09T07:36:16.422Z,28.50
2023-04-09T07:37:16.316Z,29.20
2023-04-09T07:38:16.316Z,29.40
2023-04-09T07:39:16.309Z,29.00
2023-04-09T07:40:16.300Z,28.20
2023-04-09T07:41:16.304Z,29.00
2023-04-09T07:42:16.273Z,28.10
2023-04-09T07:43:17.429Z,29.70
2023-04-09T07:44:16.260Z,27.80
2023-04-09T07:45:16.263Z,27.60
2023-04-09T07:46:16.303Z,27.40
2023-04-09T07:47:16.239Z,27.40
2023-04-09T07:48:16.225Z,27.40
2023-04-09T07:49:16.234Z,28.50
2023-04-09T07:50:16.208Z,28.80
2023-04-09T07:51:16.228Z,30.00
2023-04-09T07:52:16.192Z,29.80
2023-04-09T07:53:16.189Z,28.90
2023-04-09T07:54:16.175Z,29.00
2023-04-09T07:55:17.351Z,29.10
2023-04-09T07:56:16.199Z,28.10
2023-04-09T07:57:16.154Z,30.20
2023-04-09T07:58:16.145Z,28.60
2023-04-09T07:59:16.143Z,28.90
2023-04-09T08:00:16.129Z,30.20
2023-04-09T08:01:16.149Z,30.00
2023-04-09T08:02:16.202Z,30.30
2023-04-09T08:03:16.212Z,29.40
2023-04-09T08:04:16.211Z,29.50
2023-04-09T08:05:16.125Z,29.10
2023-04-09T08:06:16.108Z,28.80
2023-04-09T08:07:16.077Z,29.80
2023-04-09T08:08:16.074Z,29.20
2023-04-09T08:09:16.058Z,29.80
2023-04-09T08:10:16.046Z,29.40
2023-04-09T08:11:16.088Z,28.90
2023-04-09T08:12:16.050Z,29.60
2023-04-09T08:13:16.032Z,30.10
2023-04-09T08:14:16.018Z,30.20
2023-04-09T08:15:16.014Z,29.40
2023-04-09T08:16:16.113Z,29.00
2023-04-09T08:17:15.995Z,29.30
2023-04-09T08:18:15.985Z,29.00
2023-04-09T08:19:15.984Z,28.50
2023-04-09T08:20:15.976Z,28.80
2023-04-09T08:21:15.991Z,29.60
2023-04-09T08:22:15.953Z,28.30
2023-04-09T08:23:15.946Z,29.10
2023-04-09T08:24:15.945Z,30.20
2023-04-09T08:25:15.954Z,31.30
2023-04-09T08:26:15.951Z,29.00
2023-04-09T08:27:15.924Z,30.40
2023-04-09T08:28:15.917Z,30.00
2023-04-09T08:29:15.900Z,31.30
2023-04-09T08:30:16.974Z,31.40
2023-04-09T08:31:15.915Z,33.40
2023-04-09T08:32:15.993Z,32.20
2023-04-09T08:33:15.872Z,31.80
2023-04-09T08:34:15.866Z,31.60
2023-04-09T08:35:15.866Z,32.80
2023-04-09T08:36:15.920Z,32.40
2023-04-09T08:37:15.845Z,31.90
2023-04-09T08:38:15.834Z,32.70
2023-04-09T08:39:15.831Z,32.20
2023-04-09T08:40:15.818Z,32.70
2023-04-09T08:41:15.846Z,33.20
2023-04-09T08:42:15.810Z,31.90
2023-04-09T08:43:15.786Z,33.60
2023-04-09T08:44:16.788Z,33.10
2023-04-09T08:45:15.773Z,32.20
2023-04-09T08:46:15.957Z,32.90
2023-04-09T08:47:15.764Z,33.20
2023-04-09T08:48:15.802Z,32.90
2023-04-09T08:49:15.749Z,32.40
2023-04-09T08:50:15.776Z,32.30
2023-04-09T08:51:15.729Z,33.90
2023-04-09T08:52:15.756Z,33.60
2023-04-09T08:53:15.721Z,32.40
2023-04-09T08:54:15.703Z,33.40
2023-04-09T08:55:15.703Z,30.90
2023-04-09T08:56:15.697Z,30.70
2023-04-09T08:57:15.721Z,31.70
2023-04-09T08:58:15.669Z,31.30
2023-04-09T08:59:15.662Z,32.00
2023-04-09T09:00:15.656Z,31.20
2023-04-09T09:01:15.683Z,32.90
2023-04-09T09:02:15.680Z,31.70
2023-04-09T09:03:15.727Z,31.80
2023-04-09T09:04:15.678Z,31.40
2023-04-09T09:05:15.615Z,32.70
2023-04-09T09:06:15.609Z,32.60
2023-04-09T09:07:15.634Z,31.60
2023-04-09T09:08:15.587Z,32.20
2023-04-09T09:09:15.590Z,31.80
2023-04-09T09:10:15.581Z,31.40
2023-04-09T09:11:15.566Z,31.70
2023-04-09T09:12:15.631Z,31.80
2023-04-09T09:13:15.559Z,31.60
2023-04-09T09:14:15.544Z,31.50
2023-04-09T09:15:15.536Z,33.40
2023-04-09T09:16:15.581Z,31.00
2023-04-09T09:17:15.552Z,31.40
2023-04-09T09:18:15.523Z,31.30
2023-04-09T09:19:15.500Z,29.50
2023-04-09T09:20:15.503Z,31.80
2023-04-09T09:21:15.486Z,30.80
2023-04-09T09:22:15.495Z,30.40
2023-04-09T09:23:15.470Z,29.50
2023-04-09T09:24:15.458Z,30.20
2023-04-09T09:25:15.455Z,30.70
2023-04-09T09:26:15.445Z,31.20
2023-04-09T09:27:15.455Z,30.50
2023-04-09T09:28:15.427Z,30.80
2023-04-09T09:29:15.426Z,29.50
2023-04-09T09:30:15.411Z,30.30
2023-04-09T09:31:15.430Z,31.50
2023-04-09T09:32:15.424Z,30.10
2023-04-09T09:33:15.388Z,29.60
2023-04-09T09:34:15.380Z,30.30
2023-04-09T09:35:15.393Z,30.60
2023-04-09T09:36:15.385Z,31.00
2023-04-09T09:37:15.384Z,28.70
2023-04-09T09:38:15.350Z,28.90
2023-04-09T09:39:15.355Z,29.50
2023-04-09T09:40:15.338Z,28.20
2023-04-09T09:41:15.332Z,29.10
2023-04-09T09:42:15.379Z,28.20
2023-04-09T09:43:15.317Z,29.80
2023-04-09T09:44:15.306Z,30.20
2023-04-09T09:45:15.337Z,29.70
2023-04-09T09:46:15.360Z,28.70
2023-04-09T09:47:15.304Z,28.80
2023-04-09T09:48:15.269Z,29.20
2023-04-09T09:49:15.258Z,28.70
2023-04-09T09:50:15.256Z,28.40
2023-04-09T09:51:15.247Z,28.80
2023-04-09T09:52:15.271Z,27.90
2023-04-09T09:53:15.236Z,29.20
2023-04-09T09:54:15.226Z,29.40
2023-04-09T09:55:15.220Z,26.80
2023-04-09T09:56:15.210Z,27.80
2023-04-09T09:57:15.228Z,27.90
2023-04-09T09:58:15.195Z,27.20
2023-04-09T09:59:15.192Z,27.20
2023-04-09T10:00:15.183Z,28.30
2023-04-09T10:01:15.203Z,27.80
2023-04-09T10:02:15.238Z,26.90
2023-04-09T10:03:15.214Z,26.40
2023-04-09T10:04:15.233Z,27.70
2023-04-09T10:05:15.137Z,25.90
2023-04-09T10:06:15.132Z,27.00
2023-04-09T10:07:15.151Z,26.10
2023-04-09T10:08:15.115Z,25.40
2023-04-09T10:09:15.117Z,24.90
2023-04-09T10:10:15.146Z,25.30
2023-04-09T10:11:15.094Z,24.60
2023-04-09T10:12:15.104Z,24.20
2023-04-09T10:13:15.079Z,25.20
2023-04-09T10:14:15.080Z,24.90
2023-04-09T10:15:15.054Z,25.30
2023-04-09T10:16:15.072Z,24.80
2023-04-09T10:17:15.063Z,25.10
2023-04-09T10:18:15.062Z,24.40
2023-04-09T10:19:15.022Z,24.90
2023-04-09T10:20:15.034Z,24.00
2023-04-09T10:21:15.006Z,23.50
2023-04-09T10:22:15.040Z,22.90
2023-04-09T10:23:14.999Z,22.50
2023-04-09T10:24:15.065Z,22.80
2023-04-09T10:25:15.025Z,21.70
2023-04-09T10:26:14.963Z,22.00
2023-04-09T10:27:16.221Z,21.60
2023-04-09T10:28:15.977Z,23.20
2023-04-09T10:29:14.944Z,22.90
2023-04-09T10:30:14.950Z,22.90
2023-04-09T10:31:14.962Z,20.20
2023-04-09T10:32:14.913Z,21.20
2023-04-09T10:33:14.930Z,22.60
2023-04-09T10:34:14.911Z,23.40
2023-04-09T10:35:14.893Z,22.10
2023-04-09T10:36:14.956Z,21.80
2023-04-09T10:37:14.893Z,22.00
2023-04-09T10:38:14.900Z,22.60
2023-04-09T10:39:14.862Z,20.80
2023-04-09T10:40:14.889Z,21.80
2023-04-09T10:41:14.868Z,20.90
2023-04-09T10:42:14.844Z,20.50
2023-04-09T10:43:14.870Z,20.20
2023-04-09T10:44:14.825Z,21.10
2023-04-09T10:45:15.048Z,21.00
2023-04-09T10:46:14.824Z,21.30
2023-04-09T10:47:14.805Z,20.80
2023-04-09T10:48:14.820Z,20.40
2023-04-09T10:49:14.784Z,20.20
2023-04-09T10:50:14.782Z,19.80
2023-04-09T10:51:14.774Z,20.20
2023-04-09T10:52:14.772Z,20.80
2023-04-09T10:53:14.782Z,19.80
2023-04-09T10:54:14.746Z,20.10
2023-04-09T10:55:14.737Z,20.00
2023-04-09T10:56:14.730Z,21.10
2023-04-09T10:57:14.725Z,20.30
2023-04-09T10:58:14.739Z,19.70
2023-04-09T10:59:14.703Z,20.40
2023-04-09T11:00:14.697Z,20.30
2023-04-09T11:01:14.697Z,20.30
2023-04-09T11:02:14.727Z,19.20
2023-04-09T11:03:14.890Z,20.20
2023-04-09T11:04:14.677Z,20.40
2023-04-09T11:05:14.659Z,19.10
2023-04-09T11:06:14.655Z,19.50
2023-04-09T11:07:14.649Z,19.20
2023-04-09T11:08:14.669Z,19.20
2023-04-09T11:09:14.633Z,18.60
2023-04-09T11:10:14.624Z,18.90
2023-04-09T11:11:14.620Z,18.80
2023-04-09T11:12:14.616Z,19.50
2023-04-09T11:13:14.618Z,19.30
2023-04-09T11:14:14.593Z,19.10
2023-04-09T11:15:14.575Z,19.00
2023-04-09T11:16:22.839Z,18.80
2023-04-09T11:17:15.564Z,19.60
2023-04-09T11:18:14.586Z,19.00
2023-04-09T11:19:14.549Z,18.90
2023-04-09T11:20:14.549Z,18.30
2023-04-09T11:21:14.531Z,17.70
2023-04-09T11:22:14.531Z,18.50
2023-04-09T11:23:14.544Z,18.10
2023-04-09T11:24:14.504Z,18.00
2023-04-09T11:25:14.497Z,17.60
2023-04-09T11:26:14.494Z,17.50
2023-04-09T11:27:14.483Z,17.20
2023-04-09T11:28:14.492Z,17.40
2023-04-09T11:29:14.460Z,17.60
2023-04-09T11:30:14.458Z,17.00
2023-04-09T11:31:14.454Z,17.40
2023-04-09T11:32:14.451Z,17.50
2023-04-09T11:33:15.146Z,16.00
2023-04-09T11:34:14.421Z,17.20
2023-04-09T11:35:14.422Z,17.20
2023-04-09T11:36:14.446Z,16.60
2023-04-09T11:37:14.403Z,16.00
2023-04-09T11:38:14.419Z,16.90
2023-04-09T11:39:14.385Z,16.80
2023-04-09T11:40:14.397Z,15.90
2023-04-09T11:41:14.367Z,15.20
2023-04-09T11:42:14.352Z,15.20
2023-04-09T11:43:14.375Z,16.30
2023-04-09T11:44:14.336Z,16.50
2023-04-09T11:45:14.340Z,15.80
2023-04-09T11:46:14.325Z,15.70
2023-04-09T11:47:14.332Z,15.60
2023-04-09T11:48:14.333Z,15.80
2023-04-09T11:49:14.299Z,16.10
2023-04-09T11:50:14.301Z,15.50
2023-04-09T11:51:14.293Z,15.30
2023-04-09T11:52:14.279Z,15.70
2023-04-09T11:53:14.310Z,16.20
2023-04-09T11:54:14.263Z,16.00
2023-04-09T11:55:14.255Z,14.90
2023-04-09T11:56:14.263Z,15.50
2023-04-09T11:57:14.247Z,15.40
2023-04-09T11:58:14.264Z,15.70
2023-04-09T11:59:14.225Z,16.30
2023-04-09T12:00:14.214Z,15.60
2023-04-09T12:01:14.216Z,14.50
2023-04-09T12:02:14.254Z,16.20
2023-04-09T12:03:14.331Z,15.90
2023-04-09T12:04:14.349Z,15.00
2023-04-09T12:05:14.281Z,15.30
2023-04-09T12:06:14.172Z,15.10
2023-04-09T12:07:14.160Z,15.50
2023-04-09T12:08:14.160Z,14.50
2023-04-09T12:09:14.212Z,13.60
2023-04-09T12:10:14.138Z,14.10
2023-04-09T12:11:14.134Z,14.20
2023-04-09T12:12:14.125Z,14.60
2023-04-09T12:13:14.140Z,13.40
2023-04-09T12:14:14.131Z,12.60
2023-04-09T12:15:14.093Z,13.20
2023-04-09T12:16:14.151Z,13.70
2023-04-09T12:17:14.089Z,13.40
2023-04-09T12:18:14.093Z,14.30
2023-04-09T12:19:14.126Z,13.60
2023-04-09T12:20:14.061Z,13.00
2023-04-09T12:21:14.058Z,12.90
2023-04-09T12:22:14.049Z,12.80
2023-04-09T12:23:14.044Z,12.90
2023-04-09T12:24:14.049Z,12.60
2023-04-09T12:25:14.012Z,13.10
2023-04-09T12:26:14.011Z,13.30
2023-04-09T12:27:14.005Z,13.00
2023-04-09T12:28:13.995Z,13.10
2023-04-09T12:29:14.017Z,13.10
2023-04-09T12:30:13.983Z,13.30
2023-04-09T12:31:13.985Z,13.30
2023-04-09T12:32:14.101Z,12.90
2023-04-09T12:33:13.971Z,13.30
2023-04-09T12:34:13.993Z,12.20
2023-04-09T12:35:13.945Z,12.30
2023-04-09T12:36:14.005Z,12.40
2023-04-09T12:37:13.930Z,12.10
2023-04-09T12:38:13.944Z,12.10
2023-04-09T12:39:13.940Z,10.70
2023-04-09T12:40:13.921Z,10.80
2023-04-09T12:41:14.894Z,10.80
2023-04-09T12:42:13.912Z,11.60
2023-04-09T12:43:13.881Z,11.20
2023-04-09T12:44:13.897Z,11.80
2023-04-09T12:45:13.888Z,11.90
2023-04-09T12:46:13.974Z,10.90
2023-04-09T12:47:13.852Z,11.40
2023-04-09T12:48:13.840Z,10.70
2023-04-09T12:49:13.863Z,9.00
2023-04-09T12:50:13.825Z,9.80
2023-04-09T12:51:13.822Z,8.50
2023-04-09T12:52:13.829Z,8.20